• Join FlightAware (Why Join?)
  • Login
  • US Flag 
10:17PM EDT


 

Airport Tracker/Info


-or-


 

Live Flight TrackerFlight Track Log ✈ JZA8745 ✈ 11-May-2013 ✈ CZBF - CYUL

Flight Track Log - Related Links

Times and Time Zones

All times are in EDT time to prevent confusion due to time zone crossing. See the JZA8745 flight status page for this flight to view local times or setup timezone preferences in your user account.

Time Position Orientation Groundspeed Altitude Reporting Facility
EDT Latitude Longitude Course Direction KTS MPH feet Rate Location/Type
02:56PM 47.5667 -65.8667 240° Southwest 130 150 5,700  Level Moncton Center
02:57PM 47.5500 -65.9167 244° Southwest 130 150 7,300 1,680 Climbing Moncton Center
02:58PM 47.5333 -65.9667 244° Southwest 140 161 9,100 1,740 Climbing Moncton Center
02:59PM 47.5167 -66.0167 244° Southwest 140 161 10,800 1,680 Climbing Moncton Center
03:00PM 47.5000 -66.0500 234° Southwest 130 150 12,500 1,200 Climbing Moncton Center
03:01PM 47.4001 -66.3532 240° Southwest  Level FlightAware Approximate
03:01PM 47.4833 -66.1000 244° Southwest 130 150 13,300  Level Moncton Center
03:02PM 47.4667 -66.1833 254° West 160 184 14,200 960 Climbing Moncton Center
03:03PM 47.4333 -66.2500 234° Southwest 170 196 15,300 900 Climbing Moncton Center
03:04PM 47.4167 -66.3000 244° Southwest 170 196 16,000 780 Climbing Moncton Center
03:05PM 47.4000 -66.3500 244° Southwest 170 196 16,900 840 Climbing Moncton Center
03:06PM 47.3833 -66.4167 250° West 160 184 17,700 600 Climbing Moncton Center
03:07PM 47.3667 -66.4667 244° Southwest 160 184 18,200 480 Climbing Moncton Center
03:08PM 47.3500 -66.5167 244° Southwest 150 173 18,700 540 Climbing Moncton Center
03:09PM 47.3167 -66.6000 239° Southwest 150 173 19,300 420 Climbing Moncton Center
03:10PM 47.3000 -66.6500 244° Southwest 150 173 19,600 300 Climbing Moncton Center
03:11PM 47.2833 -66.7000 244° Southwest 150 173 20,000 180 Climbing Moncton Center
03:12PM 47.2500 -66.7667 234° Southwest 160 184 20,000  Level Moncton Center
03:13PM 47.2333 -66.8167 244° Southwest 180 207 20,000  Level Moncton Center
03:14PM 47.2000 -66.8833 234° Southwest 190 219 20,000  Level Moncton Center
03:15PM 47.1833 -66.9667 254° West 200 230 20,000  Level Moncton Center
03:16PM 47.1500 -67.0333 234° Southwest 210 242 20,000  Level Moncton Center
03:17PM 47.1333 -67.1000 250° West 210 242 20,000  Level Moncton Center
03:18PM 47.1000 -67.2000 244° Southwest 210 242 20,000  Level Moncton Center
03:19PM 47.0667 -67.2667 234° Southwest 220 253 20,000  Level Moncton Center
03:20PM 47.0500 -67.3500 254° West 210 242 20,000  Level Moncton Center
03:21PM 47.0181 -67.4350 241° Southwest 225 259 20,000  Level Boston Center
03:22PM 46.9833 -67.5167 238° Southwest 210 242 20,000  Level Moncton Center
03:23PM 46.9500 -67.5833 234° Southwest 220 253 20,000  Level Moncton Center
03:24PM 46.9167 -67.6500 234° Southwest 220 253 20,000  Level Moncton Center
03:25PM 46.9000 -67.7333 254° West 210 242 20,000  Level Moncton Center
03:26PM 46.8667 -67.8167 240° Southwest 220 253 20,000  Level Moncton Center
03:27PM 46.8500 -67.9000 254° West 230 265 20,000  Level Moncton Center
03:28PM 46.8000 -67.9667 222° Southwest 220 253 20,000  Level Moncton Center
03:29PM 46.7667 -68.0333 234° Southwest 220 253 20,000  Level Moncton Center
03:30PM 46.7500 -68.1333 256° West 220 253 20,000  Level Moncton Center
03:30PM 46.7572 -68.1556 295° West 230 265 20,000  Level Boston Center
03:31PM 46.7331 -68.2419 248° West 225 259 20,000  Level Boston Center
03:32PM 46.7111 -68.3256 249° West 220 253 20,000  Level Boston Center
03:33PM 46.6869 -68.4058 246° West 220 253 20,000  Level Boston Center
03:34PM 46.6625 -68.4864 246° West 220 253 20,000  Level Boston Center
03:35PM 46.6383 -68.5697 247° West 220 253 20,000  Level Boston Center
03:36PM 46.6114 -68.6439 242° Southwest 225 259 20,000  Level Boston Center
03:37PM 46.5872 -68.7303 248° West 225 259 20,000  Level Boston Center
03:38PM 46.5683 -68.7950 247° West 220 253 20,000  Level Boston Center
03:39PM 46.5383 -68.9025 248° West 227 261 20,000  Level Boston Center
03:40PM 46.5114 -68.9794 243° Southwest 227 261 20,000  Level Boston Center
03:42PM 46.4850 -69.0686 247° West 227 261 20,000  Level Boston Center
03:43PM 46.4525 -69.1700 245° Southwest 227 261 20,000  Level Boston Center
03:44PM 46.4294 -69.2436 246° West 227 261 20,000  Level Boston Center
03:45PM 46.4047 -69.3261 247° West 227 261 20,000 -60 Level Boston Center
03:46PM 46.3797 -69.4089 246° West 227 261 19,900  Descending Boston Center
03:47PM 46.3528 -69.4944 245° Southwest 227 261 20,000  Climbing Boston Center
03:48PM 46.3297 -69.5736 247° West 227 261 20,000  Level Boston Center
03:49PM 46.3047 -69.6561 246° West 222 255 20,000  Level Boston Center
03:50PM 46.2772 -69.7356 243° Southwest 222 255 20,000  Level Boston Center
03:51PM 46.2522 -69.8178 246° West 222 255 20,000  Level Boston Center
03:52PM 46.2247 -69.9000 244° Southwest 222 255 20,000  Level Boston Center
03:53PM 46.2017 -69.9850 249° West 222 255 20,000  Level Boston Center
03:54PM 46.1719 -70.0642 242° Southwest 222 255 20,000  Level Boston Center
03:55PM 46.1467 -70.1461 246° West 222 255 20,000  Level Boston Center
03:55PM 46.1167 -70.1833 221° Southwest 220 253 20,000  Level Montreal Center
03:56PM 46.1000 -70.2667 254° West 230 265 20,000  Level Montreal Center
03:57PM 46.0667 -70.3333 234° Southwest 230 265 20,000  Level Montreal Center
03:58PM 46.0333 -70.4333 244° Southwest 220 253 20,000  Level Montreal Center
03:59PM 46.0167 -70.5000 250° West 220 253 20,000  Level Montreal Center
04:00PM 46.0000 -70.5833 254° West 230 265 20,000  Level Montreal Center
04:01PM 45.9667 -70.6667 240° Southwest 230 265 20,000  Level Montreal Center
04:02PM 45.9333 -70.7667 244° Southwest 230 265 20,000  Level Montreal Center
04:03PM 45.9167 -70.8333 250° West 220 253 20,000  Level Montreal Center
04:04PM 45.9167 -70.9333 270° West 230 265 20,000  Level Montreal Center
04:05PM 45.9000 -71.0000 250° West 230 265 20,000  Level Montreal Center
04:06PM 45.8833 -71.1000 257° West 230 265 20,000  Level Montreal Center
04:07PM 45.8833 -71.2000 270° West 230 265 20,000  Level Montreal Center
04:08PM 45.8833 -71.3000 270° West 230 265 20,000  Level Montreal Center
04:09PM 45.8667 -71.4000 257° West 230 265 20,000  Level Montreal Center
04:10PM 45.8500 -71.4667 250° West 230 265 20,000  Level Montreal Center
04:11PM 45.8500 -71.5667 270° West 230 265 20,000  Level Montreal Center
04:12PM 45.8333 -71.6667 257° West 230 265 20,000 -240 Level Montreal Center
04:13PM 45.8333 -71.7500 270° West 240 276 19,600 -420 Descending Montreal Center
04:14PM 45.8167 -71.8500 257° West 250 288 19,200 -540 Descending Montreal Center
04:15PM 45.8167 -71.9500 270° West 250 288 18,600 -780 Descending Montreal Center
04:16PM 45.8000 -72.0667 258° West 260 299 17,700 -780 Descending Montreal Center
04:17PM 45.8000 -72.1667 270° West 260 299 17,100 -600 Descending Montreal Center
04:18PM 45.7833 -72.2667 257° West 260 299 16,500 -660 Descending Montreal Center
04:19PM 45.7833 -72.3667 270° West 260 299 15,800 -720 Descending Montreal Center
04:20PM 45.7667 -72.4667 257° West 260 299 15,100 -900 Descending Montreal Center
04:21PM 45.7500 -72.5833 258° West 270 311 14,100 -1,020 Descending Montreal Center
04:22PM 45.7500 -72.6833 270° West 260 299 13,100 -1,020 Descending Montreal Center
04:23PM 45.7333 -72.7667 254° West 260 299 12,100 -1,020 Descending Montreal Center
04:24PM 45.7167 -72.9000 260° West 260 299 11,100 -1,020 Descending Montreal Center
04:25PM 45.7167 -72.9833 270° West 250 288 10,100 -1,020 Descending Montreal Center
04:26PM 45.7000 -73.0667 254° West 250 288 9,100 -900 Descending Montreal Center
04:27PM 45.6833 -73.1667 257° West 210 242 8,300 -780 Descending Montreal Center
04:28PM 45.6667 -73.2333 250° West 210 242 7,600 -780 Descending Montreal Center
04:29PM 45.6833 -73.3333 283° West 200 230 6,800 -840 Descending Montreal Center
04:30PM 45.7167 -73.3833 314° West 210 242 6,000 -720 Descending Montreal Center
04:31PM 45.7000 -73.4167 234° Southwest 160 184 5,400 -540 Descending Montreal Center
04:32PM 45.6667 -73.4667 226° Southwest 160 184 5,000 -480 Descending Montreal Center
04:33PM 45.6333 -73.5000 215° Southwest 160 184 4,500 -660 Descending Montreal Center
04:34PM 45.6000 -73.5500 226° Southwest 140 161 3,700 -840 Descending Montreal Center
04:35PM 45.5833 -73.6000 245° Southwest 140 161 2,900 -840 Descending Montreal Center
04:36PM 45.5500 -73.6167 199° South 150 173 2,100 -840 Descending Montreal Center
04:37PM 45.5167 -73.6667 226° Southwest 150 173 1,300 -720 Descending Montreal Center
04:38PM 45.5000 -73.7000 235° Southwest 110 127 700 -600 Descending Montreal Center